This is the latest recevied weather packets stored in our database for station/object GW1479. If no packets are shown the sender has not sent any weather packets the latest 10 day(s).
| Time | Temp. | Humidity | Pressure | Rain* | Wind** | Luminosity | Snow |
|---|---|---|---|---|---|---|---|
| 1777945158 | 16.67° C | 80% | 1009.4 hPa | 0 mm | - | - | - |
| 1777943737 | 18.33° C | 71% | 1009.1 hPa | 0 mm | - | - | - |
| 1777943011 | 18.89° C | 70% | 1009.1 hPa | 0 mm | - | - | - |
| 1777940113 | 21.11° C | 61% | 1009.1 hPa | 0 mm | - | - | - |
| 1777939035 | 21.67° C | 58% | 1008.8 hPa | 0 mm | - | - | - |
| 1777937622 | 24.44° C | 57% | 1008.8 hPa | 0 mm | - | - | - |
| 1777935107 | 23.89° C | 56% | 1008.4 hPa | 0 mm | - | - | - |
| 1777934376 | 22.78° C | 56% | 1008.8 hPa | 0 mm | - | - | - |
| 1777933996 | 22.78° C | 55% | 1008.8 hPa | 0 mm | - | - | - |
| 1777932196 | 23.89° C | 53% | 1008.8 hPa | 0 mm | - | - | - |
| 1777929328 | 22.78° C | 54% | 1008.8 hPa | 0 mm | - | - | - |
| 1777928990 | 23.33° C | 54% | 1008.4 hPa | 0 mm | - | - | - |
| 1777927172 | 24.44° C | 51% | 1008.4 hPa | 0 mm | - | - | - |
| 1777925741 | 23.33° C | 52% | 1008.4 hPa | 0 mm | - | - | - |
| 1777923577 | 24.44° C | 53% | 1008.4 hPa | 0 mm | - | - | - |
| 1777922842 | 23.89° C | 53% | 1008.8 hPa | 0 mm | - | - | - |
| 1777921789 | 23.89° C | 52% | 1009.1 hPa | 0 mm | - | - | - |
| 1777921054 | 23.89° C | 53% | 1009.4 hPa | 0 mm | - | - | - |
| 1777920335 | 23.33° C | 53% | 1009.4 hPa | 0 mm | - | - | - |
| 1777917800 | 22.22° C | 56% | 1010.1 hPa | 0 mm | - | - | - |
| 1777917468 | 22.22° C | 57% | 1010.1 hPa | 0 mm | - | - | - |
| 1777915633 | 21.67° C | 58% | 1010.4 hPa | 0 mm | - | - | - |
| 1777913498 | 21.11° C | 58% | 1010.8 hPa | 0 mm | - | - | - |
| 1777911690 | 20.56° C | 57% | 1011.5 hPa | 0 mm | - | - | - |
| 1777911312 | 20.56° C | 56% | 1011.5 hPa | 0 mm | - | - | - |
* Rain since midnight (hover to see other rain measurements)
** Current wind speed in m/s (hover to see current wind gust speed)